createdAt,value
2022-09-04T00:00:38.571Z,100628.06
2022-09-04T00:03:28.620Z,100636.09
2022-09-04T00:06:10.311Z,100632.25
2022-09-04T00:08:58.107Z,100639.28
2022-09-04T00:11:47.240Z,100647.34
2022-09-04T00:14:24.200Z,100645.31
2022-09-04T00:17:03.500Z,100642.72
2022-09-04T00:19:45.171Z,100650.25
2022-09-04T00:22:29.703Z,100638.84
2022-09-04T00:25:11.465Z,100642.34
2022-09-04T00:27:51.706Z,100644.31
2022-09-04T00:30:26.171Z,100646.31
2022-09-04T00:33:07.907Z,100649.84
2022-09-04T00:35:47.496Z,100653.91
2022-09-04T00:38:37.795Z,100646.19
2022-09-04T00:41:22.919Z,100649.38
2022-09-04T00:44:24.456Z,100652.75
2022-09-04T00:47:23.548Z,100656.28
2022-09-04T00:50:25.015Z,100653.59
2022-09-04T00:53:14.401Z,100647.81
2022-09-04T00:56:05.940Z,100648.62
2022-09-04T00:58:53.924Z,100652.94
2022-09-04T01:01:30.121Z,100649.63
2022-09-04T01:04:33.475Z,100647.34
2022-09-04T01:07:24.215Z,100651.03
2022-09-04T01:10:31.251Z,100639.94
2022-09-04T01:13:13.060Z,100651.75
2022-09-04T01:15:54.909Z,100656.94
2022-09-04T01:18:39.212Z,100650.53
2022-09-04T01:21:39.248Z,100656.03
2022-09-04T01:24:43.346Z,100651.16
2022-09-04T01:27:25.776Z,100657.91
2022-09-04T01:30:06.937Z,100660.69
2022-09-04T01:32:50.400Z,100670.47
2022-09-04T01:35:34.160Z,100665.06
2022-09-04T01:38:19.306Z,100656.63
2022-09-04T01:41:00.304Z,100658.34
2022-09-04T01:43:36.020Z,100660.66
2022-09-04T01:46:28.545Z,100664.47
2022-09-04T01:49:11.879Z,100654.88
2022-09-04T01:51:55.422Z,100661.81
2022-09-04T01:54:44.256Z,100651.69
2022-09-04T01:57:31.442Z,100660.09
2022-09-04T02:00:11.665Z,100656.50
2022-09-04T02:03:00.384Z,100659.53
2022-09-04T02:05:45.765Z,100665.78
2022-09-04T02:08:36.014Z,100660.63
2022-09-04T02:11:16.628Z,100657.31
2022-09-04T02:14:08.841Z,100671.31
2022-09-04T02:16:57.011Z,100669.22
2022-09-04T02:19:38.983Z,100677.84
2022-09-04T02:22:21.958Z,100676.66
2022-09-04T02:25:06.975Z,100685.19
2022-09-04T02:27:51.489Z,100687.59
2022-09-04T02:30:26.968Z,100680.72
2022-09-04T02:33:08.981Z,100689.88
2022-09-04T02:35:52.654Z,100684.00
2022-09-04T02:38:36.905Z,100688.78
2022-09-04T02:41:20.772Z,100687.81
2022-09-04T02:44:18.877Z,100688.19
2022-09-04T02:47:02.697Z,100685.19
2022-09-04T02:49:51.405Z,100687.06
2022-09-04T02:52:42.476Z,100684.44
2022-09-04T02:55:29.137Z,100685.94
2022-09-04T02:58:16.200Z,100687.19
2022-09-04T03:00:59.017Z,100686.34
2022-09-04T03:03:40.793Z,100682.91
2022-09-04T03:06:23.584Z,100682.41
2022-09-04T03:09:05.539Z,100680.22
2022-09-04T03:11:45.551Z,100680.81
2022-09-04T03:14:27.949Z,100685.31
2022-09-04T03:17:11.855Z,100680.75
2022-09-04T03:19:53.197Z,100679.88
2022-09-04T03:22:33.645Z,100683.12
2022-09-04T03:25:29.563Z,100684.25
2022-09-04T03:28:03.838Z,100685.78
2022-09-04T03:30:40.569Z,100692.84
2022-09-04T03:33:22.593Z,100686.00
2022-09-04T03:36:02.081Z,100689.13
2022-09-04T03:38:54.003Z,100699.62
2022-09-04T03:41:39.342Z,100704.66
2022-09-04T03:44:23.946Z,100703.44
2022-09-04T03:47:07.658Z,100708.66
2022-09-04T03:49:54.285Z,100711.66
2022-09-04T03:52:36.927Z,100718.50
2022-09-04T03:55:28.976Z,100726.62
2022-09-04T03:58:15.509Z,100732.44
2022-09-04T04:01:01.286Z,100744.00
2022-09-04T04:04:01.416Z,100748.72
2022-09-04T04:06:42.978Z,100746.69
2022-09-04T04:09:31.673Z,100751.50
2022-09-04T04:12:27.512Z,100757.03
2022-09-04T04:15:28.414Z,100745.28
2022-09-04T04:18:11.972Z,100754.84
2022-09-04T04:20:55.738Z,100761.28
2022-09-04T04:24:27.221Z,100755.31
2022-09-04T04:27:14.671Z,100764.69
2022-09-04T04:30:04.318Z,100759.91
2022-09-04T04:33:03.521Z,100751.28
2022-09-04T04:35:45.896Z,100754.00
2022-09-04T04:38:33.094Z,100760.44
2022-09-04T04:41:21.586Z,100769.41
2022-09-04T04:44:10.754Z,100770.84
2022-09-04T04:47:03.778Z,100771.72
2022-09-04T04:49:58.595Z,100773.22
2022-09-04T04:52:46.198Z,100785.47
2022-09-04T04:55:33.821Z,100782.06
2022-09-04T04:58:28.437Z,100786.47
2022-09-04T05:01:13.736Z,100792.56
2022-09-04T05:04:03.267Z,100791.03
2022-09-04T05:06:43.004Z,100790.84
2022-09-04T05:09:26.940Z,100792.09
2022-09-04T05:12:10.590Z,100799.56
2022-09-04T05:14:53.551Z,100788.91
2022-09-04T05:17:41.836Z,100784.84
2022-09-04T05:20:36.673Z,100791.66
2022-09-04T05:23:28.760Z,100792.41
2022-09-04T05:26:12.750Z,100778.91
2022-09-04T05:28:57.361Z,100793.25
2022-09-04T05:31:46.845Z,100808.41
2022-09-04T05:34:30.604Z,100806.53
2022-09-04T05:37:11.780Z,100808.72
2022-09-04T05:40:03.414Z,100803.25
2022-09-04T05:42:50.803Z,100811.56
2022-09-04T05:45:31.337Z,100804.81
2022-09-04T05:48:16.026Z,100816.16
2022-09-04T05:51:08.926Z,100816.87
2022-09-04T05:54:11.588Z,100821.62
2022-09-04T05:57:06.390Z,100825.44
2022-09-04T06:00:02.198Z,100817.00
2022-09-04T06:03:12.094Z,100822.81
2022-09-04T06:05:58.730Z,100819.56
2022-09-04T06:09:00.118Z,100818.81
2022-09-04T06:11:46.557Z,100813.78
2022-09-04T06:14:41.932Z,100819.63
2022-09-04T06:17:32.500Z,100816.00
2022-09-04T06:20:20.344Z,100823.84
2022-09-04T06:23:21.576Z,100830.44
2022-09-04T06:26:08.758Z,100830.69
2022-09-04T06:29:06.679Z,100832.69
2022-09-04T06:32:06.320Z,100834.22
2022-09-04T06:35:01.932Z,100836.81
2022-09-04T06:37:41.961Z,100838.91
2022-09-04T06:40:33.323Z,100840.53
2022-09-04T06:43:24.334Z,100837.69
2022-09-04T06:46:16.764Z,100832.91
2022-09-04T06:49:01.418Z,100838.78
2022-09-04T06:51:48.826Z,100836.19
2022-09-04T06:54:41.187Z,100848.38
2022-09-04T06:57:36.482Z,100856.78
2022-09-04T07:00:12.685Z,100856.53
2022-09-04T07:03:05.497Z,100854.00
2022-09-04T07:05:48.940Z,100853.75
2022-09-04T07:08:35.408Z,100858.56
2022-09-04T07:11:21.747Z,100864.66
2022-09-04T07:14:20.244Z,100853.97
2022-09-04T07:17:06.310Z,100856.19
2022-09-04T07:19:54.335Z,100857.47
2022-09-04T07:22:43.734Z,100851.63
2022-09-04T07:25:26.353Z,100846.72
2022-09-04T07:28:27.510Z,100845.69
2022-09-04T07:31:06.413Z,100841.44
2022-09-04T07:33:50.827Z,100848.03
2022-09-04T07:36:36.356Z,100858.66
2022-09-04T07:39:22.058Z,100866.06
2022-09-04T07:42:06.148Z,100869.56
2022-09-04T07:44:51.546Z,100876.94
2022-09-04T07:47:35.446Z,100881.19
2022-09-04T07:50:18.613Z,100890.19
2022-09-04T07:53:11.075Z,100891.69
2022-09-04T07:55:48.010Z,100895.22
2022-09-04T07:58:45.777Z,100881.13
2022-09-04T08:01:51.263Z,100894.78
2022-09-04T08:04:45.507Z,100891.78
2022-09-04T08:07:30.426Z,100893.75
2022-09-04T08:10:21.689Z,100898.16
2022-09-04T08:13:14.279Z,100897.63
2022-09-04T08:15:58.689Z,100905.09
2022-09-04T08:19:01.637Z,100901.53
2022-09-04T08:21:41.360Z,100908.19
2022-09-04T08:24:57.398Z,100902.59
2022-09-04T08:27:57.008Z,100904.63
2022-09-04T08:30:44.614Z,100904.19
2022-09-04T08:33:55.130Z,100900.88
2022-09-04T08:36:33.689Z,100904.22
2022-09-04T08:39:12.980Z,100901.44
2022-09-04T08:42:23.944Z,100899.41
2022-09-04T08:45:42.452Z,100899.41
2022-09-04T08:48:57.877Z,100906.78
2022-09-04T08:52:02.273Z,100900.41
2022-09-04T08:55:08.723Z,100906.75
2022-09-04T08:58:16.627Z,100901.69
2022-09-04T09:01:23.567Z,100903.00
2022-09-04T09:04:22.912Z,100899.16
2022-09-04T09:07:30.683Z,100907.72
2022-09-04T09:10:30.842Z,100902.41
2022-09-04T09:13:46.996Z,100899.88
2022-09-04T09:16:25.985Z,100901.09
2022-09-04T09:19:22.901Z,100899.31
2022-09-04T09:22:12.468Z,100905.16
2022-09-04T09:25:20.985Z,100907.34
2022-09-04T09:28:45.117Z,100912.72
2022-09-04T09:32:01.709Z,100911.94
2022-09-04T09:35:32.606Z,100907.78
2022-09-04T09:38:39.131Z,100917.38
2022-09-04T09:41:46.531Z,100919.47
2022-09-04T09:44:56.675Z,100918.59
2022-09-04T09:48:11.819Z,100918.06
2022-09-04T09:51:20.608Z,100918.16
2022-09-04T09:54:20.486Z,100923.19
2022-09-04T09:57:39.094Z,100921.59
2022-09-04T10:00:17.074Z,100913.91
2022-09-04T10:03:28.620Z,100907.53
2022-09-04T10:06:40.041Z,100905.97
2022-09-04T10:09:50.760Z,100907.25
2022-09-04T10:12:59.932Z,100918.22
2022-09-04T10:16:12.101Z,100914.94
2022-09-04T10:19:30.440Z,100916.34
2022-09-04T10:22:39.904Z,100913.44
2022-09-04T10:25:44.446Z,100915.97
2022-09-04T10:28:45.643Z,100899.16
2022-09-04T10:31:54.772Z,100916.59
2022-09-04T10:35:03.318Z,100908.53
2022-09-04T10:37:54.478Z,100926.62
2022-09-04T10:40:43.316Z,100914.94
2022-09-04T10:43:56.724Z,100923.16
2022-09-04T10:46:37.729Z,100922.94
2022-09-04T10:49:30.602Z,100929.59
2022-09-04T10:52:35.228Z,100931.38
2022-09-04T10:55:21.714Z,100926.50
2022-09-04T10:58:10.723Z,100928.78
2022-09-04T11:01:04.146Z,100929.03
2022-09-04T11:03:54.008Z,100931.75
2022-09-04T11:07:12.643Z,100933.38
2022-09-04T11:10:13.851Z,100936.66
2022-09-04T11:13:17.655Z,100936.41
2022-09-04T11:16:09.589Z,100933.09
2022-09-04T11:19:16.182Z,100934.47
2022-09-04T11:22:24.612Z,100931.72
2022-09-04T11:25:29.804Z,100927.44
2022-09-04T11:28:40.475Z,100930.19
2022-09-04T11:31:51.312Z,100924.41
2022-09-04T11:35:02.647Z,100926.38
2022-09-04T11:37:59.732Z,100928.78
2022-09-04T11:41:07.932Z,100923.91
2022-09-04T11:44:22.317Z,100920.59
2022-09-04T11:47:28.510Z,100927.16
2022-09-04T11:50:43.503Z,100924.53
2022-09-04T11:53:43.079Z,100924.91
2022-09-04T11:56:45.214Z,100910.31
2022-09-04T11:59:41.871Z,100914.25
2022-09-04T12:02:57.405Z,100906.16
2022-09-04T12:05:56.196Z,100911.19
2022-09-04T12:09:04.183Z,100910.94
2022-09-04T12:12:14.604Z,100904.41
2022-09-04T12:15:12.555Z,100904.34
2022-09-04T12:18:23.283Z,100903.66
2022-09-04T12:21:26.572Z,100899.13
2022-09-04T12:24:35.468Z,100903.94
2022-09-04T12:27:28.175Z,100897.25
2022-09-04T12:30:09.106Z,100897.19
2022-09-04T12:33:19.868Z,100902.06
2022-09-04T12:36:33.453Z,100900.03
2022-09-04T12:39:58.923Z,100897.78
2022-09-04T12:42:40.568Z,100902.09
2022-09-04T12:45:24.586Z,100903.81
2022-09-04T12:48:09.706Z,100906.59
2022-09-04T12:50:52.868Z,100912.03
2022-09-04T12:53:58.072Z,100897.44
2022-09-04T12:56:49.567Z,100901.87
2022-09-04T12:59:41.829Z,100901.66
2022-09-04T13:02:27.943Z,100892.22
2022-09-04T13:05:20.356Z,100886.00
2022-09-04T13:08:04.666Z,100891.09
2022-09-04T13:10:49.697Z,100885.47
2022-09-04T13:13:31.742Z,100889.13
2022-09-04T13:16:14.846Z,100882.53
2022-09-04T13:19:00.306Z,100880.22
2022-09-04T13:21:59.773Z,100879.78
2022-09-04T13:24:45.281Z,100864.75
2022-09-04T13:27:40.368Z,100866.03
2022-09-04T13:30:22.061Z,100858.16
2022-09-04T13:33:16.533Z,100860.09
2022-09-04T13:36:18.857Z,100861.28
2022-09-04T13:39:17.706Z,100861.50
2022-09-04T13:42:33.320Z,100864.28
2022-09-04T13:45:12.885Z,100866.16
2022-09-04T13:47:54.663Z,100871.22
2022-09-04T13:50:34.005Z,100868.00
2022-09-04T13:53:16.697Z,100865.41
2022-09-04T13:55:57.397Z,100867.66
2022-09-04T13:58:39.334Z,100868.75
2022-09-04T14:01:22.640Z,100866.28
2022-09-04T14:04:00.711Z,100865.81
2022-09-04T14:06:38.324Z,100863.59
2022-09-04T14:09:13.783Z,100866.31
2022-09-04T14:12:24.881Z,100868.44
2022-09-04T14:15:49.326Z,100869.00
2022-09-04T14:18:36.762Z,100869.81
2022-09-04T14:21:34.241Z,100868.63
2022-09-04T14:24:18.858Z,100865.50
2022-09-04T14:27:04.419Z,100866.47
2022-09-04T14:29:51.576Z,100871.88
2022-09-04T14:32:33.776Z,100863.66
2022-09-04T14:35:17.707Z,100872.84
2022-09-04T14:38:29.374Z,100861.69
2022-09-04T14:41:16.285Z,100873.59
2022-09-04T14:44:03.477Z,100871.28
2022-09-04T14:46:51.210Z,100870.75
2022-09-04T14:49:31.722Z,100869.69
2022-09-04T14:52:21.609Z,100871.37
2022-09-04T14:54:57.929Z,100878.97
2022-09-04T14:57:38.520Z,100878.22
2022-09-04T15:00:17.434Z,100875.72
2022-09-04T15:03:00.664Z,100878.53
2022-09-04T15:05:47.474Z,100879.38
2022-09-04T15:08:29.897Z,100876.56
2022-09-04T15:11:10.594Z,100872.28
2022-09-04T15:13:53.018Z,100878.75
2022-09-04T15:16:44.370Z,100876.94
2022-09-04T15:19:29.270Z,100875.31
2022-09-04T15:22:11.968Z,100874.47
2022-09-04T15:24:54.410Z,100876.41
2022-09-04T15:27:37.598Z,100878.69
2022-09-04T15:30:20.669Z,100881.13
2022-09-04T15:33:06.545Z,100880.91
2022-09-04T15:35:42.477Z,100884.31
2022-09-04T15:38:21.899Z,100888.75
2022-09-04T15:41:16.798Z,100883.00
2022-09-04T15:43:54.295Z,100884.37
2022-09-04T15:46:42.748Z,100893.31
2022-09-04T15:49:29.911Z,100891.19
2022-09-04T15:52:20.051Z,100889.59
2022-09-04T15:55:05.807Z,100887.72
2022-09-04T15:57:58.891Z,100893.19
2022-09-04T16:00:38.390Z,100898.13
2022-09-04T16:03:21.000Z,100895.41
2022-09-04T16:06:02.538Z,100892.22
2022-09-04T16:08:45.155Z,100892.22
2022-09-04T16:11:28.629Z,100898.50
2022-09-04T16:14:06.785Z,100893.28
2022-09-04T16:16:46.697Z,100893.06
2022-09-04T16:19:28.372Z,100885.94
2022-09-04T16:22:11.305Z,100897.75
2022-09-04T16:24:48.969Z,100906.47
2022-09-04T16:27:29.605Z,100900.38
2022-09-04T16:30:06.255Z,100903.50
2022-09-04T16:32:44.788Z,100906.09
2022-09-04T16:35:23.278Z,100913.88
2022-09-04T16:38:05.089Z,100913.06
2022-09-04T16:40:46.550Z,100908.28
2022-09-04T16:43:27.494Z,100907.87
2022-09-04T16:46:11.199Z,100917.66
2022-09-04T16:48:52.021Z,100907.19
2022-09-04T16:51:39.847Z,100906.22
2022-09-04T16:54:24.749Z,100905.44
2022-09-04T16:57:15.174Z,100910.88
2022-09-04T16:59:55.297Z,100916.72
2022-09-04T17:02:42.880Z,100915.78
2022-09-04T17:05:28.093Z,100926.72
2022-09-04T17:08:12.291Z,100919.09
2022-09-04T17:10:51.788Z,100925.31
2022-09-04T17:13:36.916Z,100922.47
2022-09-04T17:16:18.143Z,100922.03
2022-09-04T17:18:54.774Z,100929.28
2022-09-04T17:24:54.474Z,100936.72
2022-09-04T17:26:00.855Z,100922.13
2022-09-04T17:29:16.884Z,100935.84
2022-09-04T17:30:52.458Z,100936.91
2022-09-04T17:40:33.446Z,100939.22
2022-09-04T17:40:50.141Z,100937.44
2022-09-04T17:40:50.439Z,100949.66
2022-09-04T17:43:22.566Z,100944.34
2022-09-04T17:45:53.273Z,100959.91
2022-09-04T17:48:32.880Z,100960.16
2022-09-04T17:51:08.813Z,100956.63
2022-09-04T17:53:51.749Z,100958.16
2022-09-04T17:56:33.271Z,100963.56
2022-09-04T17:59:12.524Z,100972.72
2022-09-04T18:01:56.494Z,100978.81
2022-09-04T18:04:42.331Z,100978.31
2022-09-04T18:07:57.780Z,100975.31
2022-09-04T18:10:28.449Z,100979.09
2022-09-04T18:13:37.197Z,100983.16
2022-09-04T18:16:19.651Z,100997.88
2022-09-04T18:18:56.791Z,100996.06
2022-09-04T18:21:42.313Z,101005.38
2022-09-04T18:24:20.531Z,101008.12
2022-09-04T18:27:02.218Z,101010.44
2022-09-04T18:32:43.172Z,101003.66
2022-09-04T18:37:07.962Z,101019.44
2022-09-04T18:37:20.593Z,101016.44
2022-09-04T18:39:09.089Z,101028.88
2022-09-04T18:49:35.874Z,101032.41
2022-09-04T18:50:33.450Z,101041.25
2022-09-04T18:50:50.301Z,101037.72
2022-09-04T18:51:21.273Z,101040.75
2022-09-04T18:54:01.962Z,101047.06
2022-09-04T18:56:42.336Z,101046.31
2022-09-04T18:59:21.374Z,101038.00
2022-09-04T19:02:04.393Z,101045.62
2022-09-04T19:04:53.076Z,101049.94
2022-09-04T19:07:32.597Z,101053.47
2022-09-04T19:10:19.277Z,101054.22
2022-09-04T19:13:03.041Z,101051.41
2022-09-04T19:15:55.821Z,101059.03
2022-09-04T19:18:57.373Z,101066.91
2022-09-04T19:21:57.668Z,101073.59
2022-09-04T19:24:40.922Z,101078.63
2022-09-04T19:27:26.818Z,101078.34
2022-09-04T19:30:18.795Z,101074.00
2022-09-04T19:33:07.150Z,101078.06
2022-09-04T19:35:52.822Z,101081.09
2022-09-04T19:45:56.466Z,101083.88
2022-09-04T19:45:56.852Z,101080.81
2022-09-04T19:46:18.138Z,101080.06
2022-09-04T19:47:39.067Z,101093.03
2022-09-04T19:53:17.579Z,101090.47
2022-09-04T19:53:39.520Z,101088.97
2022-09-04T19:56:29.486Z,101094.56
2022-09-04T19:59:06.813Z,101087.97
2022-09-04T20:01:46.517Z,101084.41
2022-09-04T20:04:30.355Z,101085.91
2022-09-04T20:07:07.960Z,101082.88
2022-09-04T20:09:48.749Z,101086.44
2022-09-04T20:12:27.923Z,101086.69
2022-09-04T20:15:12.184Z,101086.41
2022-09-04T20:18:12.631Z,101080.59
2022-09-04T20:20:56.272Z,101081.09
2022-09-04T20:23:35.746Z,101084.13
2022-09-04T20:26:21.054Z,101081.34
2022-09-04T20:29:07.250Z,101084.66
2022-09-04T20:31:57.483Z,101090.50
2022-09-04T20:34:41.231Z,101092.50
2022-09-04T20:37:25.752Z,101097.84
2022-09-04T20:40:19.890Z,101086.44
2022-09-04T20:43:20.337Z,101090.22
2022-09-04T20:50:06.850Z,101088.97
2022-09-04T20:52:56.685Z,101100.38
2022-09-04T20:53:00.394Z,101091.75
2022-09-04T20:55:25.143Z,101092.50
2022-09-04T21:03:12.415Z,101090.97
2022-09-04T21:03:19.491Z,101094.03
2022-09-04T21:04:42.801Z,101104.44
2022-09-04T21:07:28.112Z,101103.69
2022-09-04T21:10:14.005Z,101099.62
2022-09-04T21:13:12.385Z,101101.41
2022-09-04T21:15:59.052Z,101098.09
2022-09-04T21:19:28.356Z,101098.09
2022-09-04T21:22:33.167Z,101096.06
2022-09-04T21:25:31.122Z,101103.97
2022-09-04T21:28:45.227Z,101108.00
2022-09-04T21:31:46.707Z,101103.69
2022-09-04T21:34:43.743Z,101110.78
2022-09-04T21:37:27.996Z,101110.78
2022-09-04T21:40:50.821Z,101113.06
2022-09-04T21:44:17.235Z,101105.19
2022-09-04T21:47:13.115Z,101109.28
2022-09-04T23:26:45.515Z,101147.06
